SHU1337 UHHH-UHSS
Flight info
| Callsign | SHU1337 |
|---|---|
| Flight time | 0h 56m |
| Altitude | 35000 |
| Route | NEBES4V NEBES DCT KELUL KELUL4 |
| Aircraft | A319/M-SDE3FGHIRWY/LB1 |
Departure
| Time | 2026-05-06 19:44 |
|---|---|
| Airport | Khabarovsk Novy Airport (UHHH) |
Arrival
| Time | 2026-05-06 20:40 |
|---|---|
| Airport | Yuzhno-Sakhalinsk International Airport (UHSS) |
| Time | Latitude | Longitude | Altitude | Speed | Heading |
|---|---|---|---|---|---|
| 2026-05-06 19:13 | 48.52420 | 135.17082 | 253 ft | 0 kts | 312° |
| 2026-05-06 19:34 | 48.52417 | 135.17087 | 253 ft | 2 kts | 312° |
| 2026-05-06 19:34 | 48.52407 | 135.17104 | 253 ft | 2 kts | 312° |
| 2026-05-06 19:35 | 48.52397 | 135.17120 | 253 ft | 2 kts | 312° |
| 2026-05-06 19:35 | 48.52387 | 135.17137 | 253 ft | 2 kts | 312° |
| 2026-05-06 19:35 | 48.52377 | 135.17154 | 253 ft | 2 kts | 312° |
| 2026-05-06 19:35 | 48.52367 | 135.17168 | 253 ft | 2 kts | 346° |
| 2026-05-06 19:36 | 48.52352 | 135.17166 | 253 ft | 1 kts | 33° |
| 2026-05-06 19:36 | 48.52348 | 135.17160 | 253 ft | 1 kts | 46° |
| 2026-05-06 19:36 | 48.52345 | 135.17157 | 253 ft | 0 kts | 42° |
| 2026-05-06 19:38 | 48.52353 | 135.17168 | 253 ft | 5 kts | 40° |
| 2026-05-06 19:38 | 48.52411 | 135.17244 | 253 ft | 16 kts | 42° |
| 2026-05-06 19:39 | 48.52501 | 135.17389 | 253 ft | 19 kts | 81° |
| 2026-05-06 19:39 | 48.52428 | 135.17554 | 253 ft | 19 kts | 132° |
| 2026-05-06 19:39 | 48.52338 | 135.17705 | 253 ft | 16 kts | 131° |
| 2026-05-06 19:39 | 48.52303 | 135.17763 | 253 ft | 0 kts | 132° |
| 2026-05-06 19:40 | 48.52303 | 135.17764 | 253 ft | 0 kts | 132° |
| 2026-05-06 19:40 | 48.52287 | 135.17810 | 253 ft | 10 kts | 99° |
| 2026-05-06 19:40 | 48.52347 | 135.17946 | 253 ft | 24 kts | 43° |
| 2026-05-06 19:41 | 48.52483 | 135.18129 | 253 ft | 26 kts | 41° |
| 2026-05-06 19:41 | 48.52618 | 135.18311 | 253 ft | 26 kts | 42° |
| 2026-05-06 19:41 | 48.52763 | 135.18509 | 253 ft | 29 kts | 43° |
| 2026-05-06 19:41 | 48.52916 | 135.18716 | 253 ft | 30 kts | 43° |
| 2026-05-06 19:42 | 48.53081 | 135.18945 | 253 ft | 33 kts | 43° |
| 2026-05-06 19:42 | 48.53264 | 135.19191 | 253 ft | 36 kts | 44° |
| 2026-05-06 19:42 | 48.53456 | 135.19455 | 253 ft | 36 kts | 42° |
| 2026-05-06 19:42 | 48.53643 | 135.19708 | 253 ft | 34 kts | 45° |
| 2026-05-06 19:43 | 48.53816 | 135.19945 | 253 ft | 33 kts | 41° |
| 2026-05-06 19:43 | 48.53946 | 135.20105 | 253 ft | 15 kts | 145° |
| 2026-05-06 19:43 | 48.53825 | 135.19966 | 253 ft | 48 kts | 223° |
| 2026-05-06 19:43 | 48.53395 | 135.19382 | 254 ft | 117 kts | 222° |
| 2026-05-06 19:44 | 48.52647 | 135.18356 | 340 ft | 163 kts | 224° |
| 2026-05-06 19:44 | 48.51817 | 135.17230 | 1040 ft | 163 kts | 224° |
| 2026-05-06 19:44 | 48.50994 | 135.16127 | 1822 ft | 164 kts | 226° |
| 2026-05-06 19:44 | 48.50112 | 135.14917 | 2363 ft | 180 kts | 226° |
| 2026-05-06 19:45 | 48.49137 | 135.13573 | 2853 ft | 202 kts | 226° |
| 2026-05-06 19:45 | 48.48067 | 135.12106 | 3442 ft | 220 kts | 226° |
| 2026-05-06 19:45 | 48.46882 | 135.10489 | 4054 ft | 238 kts | 225° |
| 2026-05-06 19:45 | 48.45620 | 135.08769 | 4634 ft | 255 kts | 225° |
| 2026-05-06 19:46 | 48.44282 | 135.06952 | 5325 ft | 265 kts | 225° |
| 2026-05-06 19:46 | 48.42926 | 135.05115 | 6348 ft | 265 kts | 225° |
| 2026-05-06 19:46 | 48.41576 | 135.03291 | 7286 ft | 267 kts | 225° |
| 2026-05-06 19:46 | 48.40186 | 135.01419 | 8198 ft | 270 kts | 226° |
| 2026-05-06 19:47 | 48.38797 | 134.99544 | 9075 ft | 274 kts | 226° |
| 2026-05-06 19:47 | 48.37384 | 134.97633 | 9927 ft | 278 kts | 226° |
| 2026-05-06 19:47 | 48.35921 | 134.95651 | 10586 ft | 289 kts | 226° |
| 2026-05-06 19:47 | 48.34403 | 134.93594 | 11034 ft | 306 kts | 226° |
| 2026-05-06 19:48 | 48.32793 | 134.91423 | 11739 ft | 313 kts | 226° |
| 2026-05-06 19:48 | 48.31177 | 134.89269 | 12572 ft | 316 kts | 224° |
| 2026-05-06 19:48 | 48.29424 | 134.87286 | 13401 ft | 320 kts | 218° |
| 2026-05-06 19:48 | 48.27493 | 134.85570 | 14175 ft | 326 kts | 212° |
| 2026-05-06 19:49 | 48.25382 | 134.84253 | 14901 ft | 336 kts | 197° |
| 2026-05-06 19:49 | 48.23035 | 134.84207 | 15678 ft | 349 kts | 174° |
| 2026-05-06 19:49 | 48.20767 | 134.85565 | 16412 ft | 362 kts | 150° |
| 2026-05-06 19:49 | 48.18972 | 134.88251 | 17107 ft | 374 kts | 127° |
| 2026-05-06 19:50 | 48.17645 | 134.91632 | 17764 ft | 380 kts | 122° |
| 2026-05-06 19:50 | 48.16351 | 134.95099 | 18352 ft | 385 kts | 123° |
| 2026-05-06 19:50 | 48.15031 | 134.98566 | 18946 ft | 389 kts | 124° |
| 2026-05-06 19:50 | 48.13652 | 135.02110 | 19498 ft | 394 kts | 123° |
| 2026-05-06 19:51 | 48.12642 | 135.05962 | 19996 ft | 407 kts | 104° |
| 2026-05-06 19:51 | 48.12494 | 135.10179 | 20508 ft | 415 kts | 84° |
| 2026-05-06 19:51 | 48.12944 | 135.14471 | 20992 ft | 420 kts | 79° |
| 2026-05-06 19:51 | 48.13509 | 135.18794 | 21392 ft | 428 kts | 78° |
| 2026-05-06 19:52 | 48.14082 | 135.23169 | 21797 ft | 435 kts | 79° |
| 2026-05-06 19:52 | 48.14639 | 135.27626 | 22241 ft | 440 kts | 79° |
| 2026-05-06 19:52 | 48.15184 | 135.32150 | 22608 ft | 447 kts | 80° |
| 2026-05-06 19:52 | 48.15720 | 135.36743 | 23012 ft | 453 kts | 80° |
| 2026-05-06 19:53 | 48.16253 | 135.41411 | 23425 ft | 458 kts | 80° |
| 2026-05-06 19:53 | 48.16786 | 135.46107 | 23791 ft | 463 kts | 81° |
| 2026-05-06 19:53 | 48.17330 | 135.50931 | 24166 ft | 469 kts | 81° |
| 2026-05-06 19:53 | 48.17865 | 135.55711 | 24523 ft | 475 kts | 81° |
| 2026-05-06 19:54 | 48.18412 | 135.60619 | 24876 ft | 480 kts | 81° |
| 2026-05-06 19:54 | 48.18964 | 135.65558 | 25229 ft | 486 kts | 82° |
| 2026-05-06 19:54 | 48.19522 | 135.70589 | 25661 ft | 490 kts | 82° |
| 2026-05-06 19:54 | 48.20079 | 135.75665 | 26023 ft | 494 kts | 82° |
| 2026-05-06 19:55 | 48.20631 | 135.80673 | 26434 ft | 496 kts | 82° |
| 2026-05-06 19:55 | 48.21191 | 135.85794 | 26971 ft | 496 kts | 83° |
| 2026-05-06 19:55 | 48.21745 | 135.90851 | 27336 ft | 499 kts | 82° |
| 2026-05-06 19:55 | 48.22309 | 135.96028 | 27645 ft | 504 kts | 83° |
| 2026-05-06 19:56 | 48.22870 | 136.01178 | 27945 ft | 509 kts | 83° |
| 2026-05-06 19:56 | 48.23431 | 136.06429 | 28248 ft | 514 kts | 84° |
| 2026-05-06 19:56 | 48.24000 | 136.11772 | 28573 ft | 518 kts | 83° |
| 2026-05-06 19:56 | 48.24566 | 136.17091 | 28898 ft | 521 kts | 83° |
| 2026-05-06 19:57 | 48.25130 | 136.22420 | 29195 ft | 525 kts | 84° |
| 2026-05-06 19:57 | 48.25708 | 136.27875 | 29494 ft | 529 kts | 84° |
| 2026-05-06 19:57 | 48.26279 | 136.33290 | 29814 ft | 532 kts | 84° |
| 2026-05-06 19:57 | 48.26852 | 136.38782 | 30160 ft | 534 kts | 84° |
| 2026-05-06 19:58 | 48.27421 | 136.44267 | 30546 ft | 535 kts | 84° |
| 2026-05-06 19:58 | 48.27992 | 136.49742 | 31026 ft | 533 kts | 83° |
| 2026-05-06 19:58 | 48.28552 | 136.55208 | 31537 ft | 530 kts | 83° |
| 2026-05-06 19:58 | 48.29116 | 136.60680 | 32040 ft | 527 kts | 82° |
| 2026-05-06 19:59 | 48.29664 | 136.66072 | 32464 ft | 526 kts | 85° |
| 2026-05-06 19:59 | 48.30072 | 136.71495 | 32831 ft | 523 kts | 89° |
| 2026-05-06 19:59 | 48.30179 | 136.76886 | 33211 ft | 518 kts | 95° |
| 2026-05-06 19:59 | 48.29999 | 136.82289 | 33556 ft | 513 kts | 102° |
| 2026-05-06 20:00 | 48.29512 | 136.87575 | 33812 ft | 511 kts | 107° |
| 2026-05-06 20:00 | 48.28780 | 136.92761 | 34008 ft | 512 kts | 110° |
| 2026-05-06 20:00 | 48.27983 | 136.97931 | 34219 ft | 512 kts | 109° |
| 2026-05-06 20:00 | 48.27171 | 137.03143 | 34444 ft | 513 kts | 109° |
| 2026-05-06 20:01 | 48.26378 | 137.08321 | 34721 ft | 514 kts | 109° |
| 2026-05-06 20:01 | 48.25598 | 137.13519 | 34759 ft | 511 kts | 109° |
| 2026-05-06 20:01 | 48.24031 | 137.23938 | 34781 ft | 513 kts | 108° |
| 2026-05-06 20:02 | 48.22462 | 137.34380 | 34774 ft | 518 kts | 108° |
| 2026-05-06 20:02 | 48.20894 | 137.44830 | 34751 ft | 515 kts | 109° |
| 2026-05-06 20:03 | 48.19304 | 137.55295 | 34778 ft | 516 kts | 108° |
| 2026-05-06 20:03 | 48.17704 | 137.65765 | 34775 ft | 518 kts | 109° |
| 2026-05-06 20:04 | 48.16098 | 137.76215 | 34770 ft | 518 kts | 109° |
| 2026-05-06 20:04 | 48.14475 | 137.86702 | 34779 ft | 519 kts | 109° |
| 2026-05-06 20:05 | 48.12838 | 137.97224 | 34764 ft | 521 kts | 110° |
| 2026-05-06 20:05 | 48.11200 | 138.07686 | 34765 ft | 519 kts | 110° |
| 2026-05-06 20:06 | 48.09531 | 138.18234 | 34775 ft | 521 kts | 109° |
| 2026-05-06 20:06 | 48.07856 | 138.28742 | 34766 ft | 523 kts | 109° |
| 2026-05-06 20:07 | 48.06175 | 138.39293 | 34735 ft | 523 kts | 109° |
| 2026-05-06 20:07 | 48.04498 | 138.49756 | 34743 ft | 522 kts | 109° |
| 2026-05-06 20:08 | 48.02782 | 138.60284 | 34716 ft | 524 kts | 109° |
| 2026-05-06 20:08 | 48.01068 | 138.70830 | 34712 ft | 523 kts | 110° |
| 2026-05-06 20:09 | 47.99342 | 138.81374 | 34721 ft | 523 kts | 110° |
| 2026-05-06 20:09 | 47.97609 | 138.91873 | 34661 ft | 523 kts | 110° |
| 2026-05-06 20:10 | 47.95866 | 139.02335 | 34695 ft | 524 kts | 109° |
| 2026-05-06 20:10 | 47.94116 | 139.12848 | 34731 ft | 523 kts | 110° |
| 2026-05-06 20:11 | 47.92368 | 139.23277 | 34742 ft | 522 kts | 109° |
| 2026-05-06 20:11 | 47.90602 | 139.33733 | 34750 ft | 521 kts | 110° |
| 2026-05-06 20:12 | 47.88813 | 139.44212 | 34512 ft | 522 kts | 110° |
| 2026-05-06 20:12 | 47.87927 | 139.49414 | 34319 ft | 522 kts | 110° |
| 2026-05-06 20:12 | 47.87026 | 139.54669 | 34089 ft | 522 kts | 109° |
| 2026-05-06 20:13 | 47.86129 | 139.59886 | 33839 ft | 521 kts | 109° |
| 2026-05-06 20:13 | 47.85242 | 139.65063 | 33585 ft | 518 kts | 110° |
| 2026-05-06 20:13 | 47.84343 | 139.70268 | 33326 ft | 518 kts | 111° |
| 2026-05-06 20:13 | 47.83460 | 139.75392 | 33011 ft | 516 kts | 111° |
| 2026-05-06 20:14 | 47.82561 | 139.80548 | 32589 ft | 515 kts | 112° |
| 2026-05-06 20:14 | 47.81668 | 139.85658 | 32080 ft | 515 kts | 112° |
| 2026-05-06 20:14 | 47.80759 | 139.90830 | 31483 ft | 516 kts | 112° |
| 2026-05-06 20:14 | 47.79861 | 139.95956 | 30847 ft | 517 kts | 111° |
| 2026-05-06 20:15 | 47.78951 | 140.01099 | 30215 ft | 519 kts | 112° |
| 2026-05-06 20:15 | 47.78032 | 140.06308 | 29592 ft | 519 kts | 112° |
| 2026-05-06 20:15 | 47.77126 | 140.11436 | 29132 ft | 514 kts | 112° |
| 2026-05-06 20:15 | 47.76227 | 140.16521 | 28753 ft | 508 kts | 112° |
| 2026-05-06 20:16 | 47.75337 | 140.21538 | 28382 ft | 502 kts | 112° |
| 2026-05-06 20:16 | 47.74453 | 140.26489 | 28009 ft | 498 kts | 112° |
| 2026-05-06 20:16 | 47.73568 | 140.31436 | 27566 ft | 494 kts | 112° |
| 2026-05-06 20:16 | 47.72686 | 140.36359 | 27172 ft | 489 kts | 113° |
| 2026-05-06 20:17 | 47.71824 | 140.41162 | 26822 ft | 485 kts | 112° |
| 2026-05-06 20:17 | 47.70949 | 140.46004 | 26416 ft | 482 kts | 112° |
| 2026-05-06 20:17 | 47.70097 | 140.50714 | 26059 ft | 478 kts | 113° |
| 2026-05-06 20:17 | 47.69230 | 140.55487 | 25692 ft | 473 kts | 112° |
| 2026-05-06 20:18 | 47.68382 | 140.60133 | 25274 ft | 471 kts | 112° |
| 2026-05-06 20:18 | 47.67535 | 140.64789 | 24868 ft | 467 kts | 112° |
| 2026-05-06 20:18 | 47.66695 | 140.69412 | 24484 ft | 462 kts | 114° |
| 2026-05-06 20:18 | 47.65862 | 140.73959 | 24175 ft | 458 kts | 113° |
| 2026-05-06 20:19 | 47.65024 | 140.78496 | 23782 ft | 456 kts | 113° |
| 2026-05-06 20:19 | 47.64187 | 140.83034 | 23393 ft | 452 kts | 113° |
| 2026-05-06 20:19 | 47.63360 | 140.87508 | 23012 ft | 449 kts | 113° |
| 2026-05-06 20:19 | 47.62551 | 140.91875 | 22649 ft | 445 kts | 113° |
| 2026-05-06 20:20 | 47.61733 | 140.96289 | 22262 ft | 442 kts | 112° |
| 2026-05-06 20:20 | 47.60920 | 141.00668 | 21904 ft | 438 kts | 112° |
| 2026-05-06 20:20 | 47.60122 | 141.04952 | 21541 ft | 434 kts | 112° |
| 2026-05-06 20:20 | 47.59323 | 141.09227 | 21153 ft | 432 kts | 112° |
| 2026-05-06 20:21 | 47.58522 | 141.13496 | 20771 ft | 429 kts | 112° |
| 2026-05-06 20:21 | 47.57735 | 141.17699 | 20383 ft | 426 kts | 112° |
| 2026-05-06 20:21 | 47.56941 | 141.21915 | 20015 ft | 423 kts | 111° |
| 2026-05-06 20:21 | 47.56159 | 141.26064 | 19607 ft | 421 kts | 111° |
| 2026-05-06 20:22 | 47.55376 | 141.30222 | 19248 ft | 417 kts | 111° |
| 2026-05-06 20:22 | 47.54598 | 141.34328 | 18879 ft | 415 kts | 111° |
| 2026-05-06 20:22 | 47.53826 | 141.38400 | 18469 ft | 412 kts | 111° |
| 2026-05-06 20:22 | 47.53052 | 141.42476 | 18122 ft | 409 kts | 110° |
| 2026-05-06 20:23 | 47.52288 | 141.46480 | 17751 ft | 406 kts | 110° |
| 2026-05-06 20:23 | 47.51520 | 141.50501 | 17379 ft | 403 kts | 110° |
| 2026-05-06 20:23 | 47.50767 | 141.54434 | 17015 ft | 400 kts | 110° |
| 2026-05-06 20:23 | 47.50018 | 141.58350 | 16666 ft | 390 kts | 110° |
| 2026-05-06 20:24 | 47.49284 | 141.62177 | 16287 ft | 382 kts | 109° |
| 2026-05-06 20:24 | 47.48560 | 141.65945 | 15928 ft | 379 kts | 110° |
| 2026-05-06 20:24 | 47.47850 | 141.69618 | 15601 ft | 376 kts | 110° |
| 2026-05-06 20:24 | 47.47129 | 141.73344 | 15247 ft | 374 kts | 110° |
| 2026-05-06 20:25 | 47.46421 | 141.76996 | 14874 ft | 371 kts | 109° |
| 2026-05-06 20:25 | 47.45717 | 141.80621 | 14532 ft | 368 kts | 109° |
| 2026-05-06 20:25 | 47.45008 | 141.84270 | 14151 ft | 366 kts | 109° |
| 2026-05-06 20:25 | 47.44312 | 141.87849 | 13785 ft | 363 kts | 109° |
| 2026-05-06 20:26 | 47.43618 | 141.91419 | 13446 ft | 360 kts | 109° |
| 2026-05-06 20:26 | 47.42932 | 141.94928 | 13080 ft | 357 kts | 108° |
| 2026-05-06 20:26 | 47.42248 | 141.98427 | 12708 ft | 355 kts | 108° |
| 2026-05-06 20:26 | 47.41564 | 142.01921 | 12358 ft | 352 kts | 108° |
| 2026-05-06 20:27 | 47.40895 | 142.05328 | 12023 ft | 348 kts | 108° |
| 2026-05-06 20:27 | 47.40225 | 142.08737 | 11683 ft | 344 kts | 108° |
| 2026-05-06 20:27 | 47.39557 | 142.12118 | 11327 ft | 341 kts | 108° |
| 2026-05-06 20:27 | 47.38899 | 142.15446 | 10968 ft | 338 kts | 108° |
| 2026-05-06 20:28 | 47.38249 | 142.18761 | 10617 ft | 335 kts | 107° |
| 2026-05-06 20:28 | 47.37608 | 142.22058 | 10261 ft | 332 kts | 107° |
| 2026-05-06 20:28 | 47.36979 | 142.25293 | 9931 ft | 328 kts | 107° |
| 2026-05-06 20:28 | 47.36362 | 142.28464 | 9802 ft | 316 kts | 107° |
| 2026-05-06 20:29 | 47.35773 | 142.31500 | 9658 ft | 306 kts | 107° |
| 2026-05-06 20:29 | 47.35188 | 142.34499 | 9348 ft | 302 kts | 107° |
| 2026-05-06 20:29 | 47.34615 | 142.37422 | 9041 ft | 298 kts | 107° |
| 2026-05-06 20:29 | 47.34037 | 142.40363 | 8734 ft | 295 kts | 107° |
| 2026-05-06 20:30 | 47.33473 | 142.43230 | 8432 ft | 291 kts | 107° |
| 2026-05-06 20:30 | 47.32356 | 142.48892 | 7824 ft | 286 kts | 107° |
| 2026-05-06 20:30 | 47.31810 | 142.51657 | 7531 ft | 283 kts | 107° |
| 2026-05-06 20:31 | 47.31259 | 142.54421 | 7233 ft | 279 kts | 109° |
| 2026-05-06 20:31 | 47.30387 | 142.56963 | 6930 ft | 274 kts | 129° |
| 2026-05-06 20:31 | 47.29055 | 142.58916 | 6655 ft | 269 kts | 143° |
| 2026-05-06 20:31 | 47.27580 | 142.60562 | 6363 ft | 266 kts | 145° |
| 2026-05-06 20:32 | 47.26099 | 142.62161 | 6077 ft | 264 kts | 144° |
| 2026-05-06 20:32 | 47.24638 | 142.63759 | 5785 ft | 263 kts | 144° |
| 2026-05-06 20:32 | 47.23171 | 142.65375 | 5499 ft | 261 kts | 145° |
| 2026-05-06 20:32 | 47.21744 | 142.66962 | 5286 ft | 256 kts | 144° |
| 2026-05-06 20:33 | 47.20334 | 142.68536 | 5268 ft | 248 kts | 144° |
| 2026-05-06 20:33 | 47.18993 | 142.70006 | 5256 ft | 232 kts | 151° |
| 2026-05-06 20:33 | 47.17574 | 142.70937 | 5212 ft | 221 kts | 164° |
| 2026-05-06 20:33 | 47.16124 | 142.71646 | 5009 ft | 218 kts | 165° |
| 2026-05-06 20:34 | 47.14662 | 142.72150 | 4768 ft | 214 kts | 174° |
| 2026-05-06 20:34 | 47.13202 | 142.72322 | 4562 ft | 209 kts | 181° |
| 2026-05-06 20:34 | 47.11751 | 142.72325 | 4343 ft | 204 kts | 184° |
| 2026-05-06 20:34 | 47.10354 | 142.72288 | 4085 ft | 200 kts | 184° |
| 2026-05-06 20:35 | 47.08976 | 142.72246 | 3883 ft | 194 kts | 184° |
| 2026-05-06 20:35 | 47.07642 | 142.72208 | 3606 ft | 189 kts | 183° |
| 2026-05-06 20:35 | 47.06363 | 142.72174 | 3325 ft | 182 kts | 183° |
| 2026-05-06 20:35 | 47.05140 | 142.72145 | 3063 ft | 167 kts | 183° |
| 2026-05-06 20:36 | 47.04032 | 142.72119 | 2825 ft | 155 kts | 183° |
| 2026-05-06 20:36 | 47.02985 | 142.72095 | 2606 ft | 144 kts | 183° |
| 2026-05-06 20:36 | 47.02021 | 142.72072 | 2398 ft | 135 kts | 183° |
| 2026-05-06 20:36 | 47.01083 | 142.72049 | 2231 ft | 134 kts | 183° |
| 2026-05-06 20:37 | 47.00150 | 142.72025 | 2065 ft | 134 kts | 183° |
| 2026-05-06 20:37 | 46.99215 | 142.72002 | 1891 ft | 133 kts | 182° |
| 2026-05-06 20:37 | 46.98299 | 142.71979 | 1719 ft | 133 kts | 182° |
| 2026-05-06 20:37 | 46.97372 | 142.71956 | 1542 ft | 133 kts | 182° |
| 2026-05-06 20:38 | 46.96451 | 142.71935 | 1360 ft | 132 kts | 182° |
| 2026-05-06 20:38 | 46.95522 | 142.71912 | 1172 ft | 132 kts | 182° |
| 2026-05-06 20:38 | 46.94617 | 142.71890 | 991 ft | 131 kts | 182° |
| 2026-05-06 20:38 | 46.93696 | 142.71867 | 805 ft | 131 kts | 181° |
| 2026-05-06 20:39 | 46.92793 | 142.71846 | 626 ft | 131 kts | 181° |
| 2026-05-06 20:39 | 46.91878 | 142.71826 | 448 ft | 130 kts | 181° |
| 2026-05-06 20:39 | 46.90979 | 142.71808 | 250 ft | 129 kts | 181° |
| 2026-05-06 20:39 | 46.90087 | 142.71786 | 76 ft | 127 kts | 181° |
| 2026-05-06 20:40 | 46.89319 | 142.71764 | 63 ft | 86 kts | 181° |
| 2026-05-06 20:40 | 46.88855 | 142.71751 | 63 ft | 52 kts | 181° |
| 2026-05-06 20:40 | 46.88697 | 142.71887 | 63 ft | 25 kts | 86° |
| 2026-05-06 20:40 | 46.88697 | 142.71956 | 63 ft | 0 kts | 91° |
| 2026-05-06 20:41 | 46.88696 | 142.71992 | 63 ft | 10 kts | 91° |
| 2026-05-06 20:42 | 46.88759 | 142.72108 | 63 ft | 18 kts | 36° |
| 2026-05-06 20:42 | 46.88783 | 142.72244 | 63 ft | 1 kts | 90° |